createdAt,value
2019-05-15T00:04:43.358Z,1022.76
2019-05-15T00:09:41.917Z,1022.79
2019-05-15T00:14:38.816Z,1022.76
2019-05-15T00:19:34.114Z,1022.67
2019-05-15T00:24:29.850Z,1022.70
2019-05-15T00:29:25.405Z,1022.65
2019-05-15T00:34:20.800Z,1022.63
2019-05-15T00:39:18.956Z,1022.68
2019-05-15T00:44:14.138Z,1022.61
2019-05-15T00:49:09.906Z,1022.53
2019-05-15T00:54:05.780Z,1022.48
2019-05-15T00:59:01.384Z,1022.40
2019-05-15T01:03:58.588Z,1022.43
2019-05-15T01:08:53.978Z,1022.46
2019-05-15T01:13:49.823Z,1022.36
2019-05-15T01:18:45.734Z,1022.43
2019-05-15T01:23:41.473Z,1022.52
2019-05-15T01:28:38.508Z,1022.36
2019-05-15T01:33:33.873Z,1022.44
2019-05-15T01:38:29.688Z,1022.45
2019-05-15T01:43:26.047Z,1022.32
2019-05-15T01:48:21.719Z,1022.37
2019-05-15T01:53:18.690Z,1022.37
2019-05-15T01:58:14.337Z,1022.38
2019-05-15T02:03:10.853Z,1022.37
2019-05-15T02:08:08.190Z,1022.40
2019-05-15T02:13:03.884Z,1022.49
2019-05-15T02:17:59.549Z,1022.43
2019-05-15T02:22:56.260Z,1022.43
2019-05-15T02:27:51.789Z,1022.37
2019-05-15T02:32:50.143Z,1022.43
2019-05-15T02:37:48.811Z,1022.32
2019-05-15T02:42:44.756Z,1022.35
2019-05-15T02:47:40.306Z,1022.31
2019-05-15T02:52:38.850Z,1022.27
2019-05-15T02:57:34.409Z,1022.30
2019-05-15T03:02:29.828Z,1022.29
2019-05-15T03:07:25.451Z,1022.39
2019-05-15T03:12:21.164Z,1022.35
2019-05-15T03:17:19.083Z,1022.31
2019-05-15T03:22:14.197Z,1022.38
2019-05-15T03:27:10.147Z,1022.25
2019-05-15T03:32:24.412Z,1022.28
2019-05-15T03:37:11.661Z,1022.37
2019-05-15T03:42:09.565Z,1022.39
2019-05-15T03:47:04.184Z,1022.39
2019-05-15T03:51:59.864Z,1022.29
2019-05-15T03:56:58.466Z,1022.25
2019-05-15T04:01:53.614Z,1022.37
2019-05-15T04:06:50.046Z,1022.25
2019-05-15T04:11:49.688Z,1022.32
2019-05-15T04:16:44.434Z,1022.36
2019-05-15T04:21:44.636Z,1022.36
2019-05-15T04:26:40.334Z,1022.27
2019-05-15T04:31:51.756Z,1022.28
2019-05-15T04:36:43.846Z,1022.22
2019-05-15T04:41:39.431Z,1022.31
2019-05-15T04:46:38.961Z,1022.36
2019-05-15T04:51:33.666Z,1022.38
2019-05-15T04:56:29.527Z,1022.35
2019-05-15T05:01:25.114Z,1022.42
2019-05-15T05:06:21.016Z,1022.37
2019-05-15T05:11:19.775Z,1022.34
2019-05-15T05:16:18.880Z,1022.38
2019-05-15T05:21:14.257Z,1022.46
2019-05-15T05:26:11.198Z,1022.54
2019-05-15T05:31:08.483Z,1022.57
2019-05-15T05:36:03.898Z,1022.63
2019-05-15T05:41:00.889Z,1022.54
2019-05-15T05:45:58.251Z,1022.57
2019-05-15T05:50:53.527Z,1022.59
2019-05-15T05:55:52.974Z,1022.52
2019-05-15T06:00:49.097Z,1022.62
2019-05-15T06:05:44.917Z,1022.59
2019-05-15T06:10:41.506Z,1022.54
2019-05-15T06:15:37.968Z,1022.54
2019-05-15T06:20:33.770Z,1022.55
2019-05-15T06:25:30.469Z,1022.61
2019-05-15T06:30:30.259Z,1022.53
2019-05-15T06:35:30.916Z,1022.65
2019-05-15T06:40:25.903Z,1022.59
2019-05-15T06:45:21.637Z,1022.63
2019-05-15T06:50:17.947Z,1022.66
2019-05-15T06:55:14.919Z,1022.64
2019-05-15T07:00:10.494Z,1022.63
2019-05-15T07:05:07.870Z,1022.72
2019-05-15T07:10:03.516Z,1022.67
2019-05-15T07:14:59.557Z,1022.50
2019-05-15T07:19:55.349Z,1022.48
2019-05-15T07:24:51.858Z,1022.43
2019-05-15T07:29:48.746Z,1022.45
2019-05-15T07:34:45.175Z,1022.35
2019-05-15T07:39:40.702Z,1022.39
2019-05-15T07:44:38.870Z,1022.24
2019-05-15T07:49:35.390Z,1022.48
2019-05-15T07:54:34.786Z,1022.59
2019-05-15T07:59:33.041Z,1022.47
2019-05-15T08:04:33.166Z,1022.31
2019-05-15T08:09:30.293Z,1022.31
2019-05-15T08:14:28.897Z,1022.40
2019-05-15T08:19:24.382Z,1022.28
2019-05-15T08:24:20.751Z,1022.21
2019-05-15T08:29:21.133Z,1022.38
2019-05-15T08:34:19.411Z,1022.22
2019-05-15T08:39:15.713Z,1022.25
2019-05-15T08:44:10.652Z,1022.23
2019-05-15T08:49:09.247Z,1022.11
2019-05-15T08:54:05.277Z,1022.02
2019-05-15T08:59:01.265Z,1022.11
2019-05-15T09:03:58.283Z,1022.30
2019-05-15T09:08:58.332Z,1021.87
2019-05-15T09:13:54.574Z,1022.04
2019-05-15T09:18:51.351Z,1021.98
2019-05-15T09:23:49.835Z,1021.97
2019-05-15T09:28:49.163Z,1021.86
2019-05-15T09:33:44.379Z,1021.74
2019-05-15T09:43:42.399Z,1021.55
2019-05-15T09:48:39.574Z,1021.48
2019-05-15T09:53:39.113Z,1021.32
2019-05-15T09:58:37.656Z,1021.36
2019-05-15T10:03:33.595Z,1021.34
2019-05-15T10:08:29.316Z,1021.36
2019-05-15T10:13:24.648Z,1021.16
2019-05-15T10:18:22.264Z,1021.16
2019-05-15T10:23:19.502Z,1021.00
2019-05-15T10:28:18.686Z,1021.02
2019-05-15T10:33:14.705Z,1020.87
2019-05-15T10:38:10.750Z,1020.86
2019-05-15T10:43:09.075Z,1020.80
2019-05-15T10:48:04.992Z,1020.74
2019-05-15T10:53:04.367Z,1020.67
2019-05-15T10:57:59.899Z,1020.54
2019-05-15T11:02:57.842Z,1020.63
2019-05-15T11:07:52.149Z,1020.52
2019-05-15T11:12:49.286Z,1020.44
2019-05-15T11:17:45.331Z,1020.26
2019-05-15T11:22:42.965Z,1020.23
2019-05-15T11:27:40.283Z,1020.23
2019-05-15T11:32:39.158Z,1020.27
2019-05-15T11:37:35.025Z,1020.17
2019-05-15T11:47:34.649Z,1019.91
2019-05-15T11:52:30.134Z,1019.97
2019-05-15T11:57:39.353Z,1019.94
2019-05-15T12:02:25.839Z,1019.84
2019-05-15T12:07:19.572Z,1019.82
2019-05-15T12:12:18.093Z,1019.86
2019-05-15T12:17:15.508Z,1019.91
2019-05-15T12:22:09.395Z,1019.98
2019-05-15T12:27:15.373Z,1019.82
2019-05-15T12:32:25.212Z,1019.72
2019-05-15T12:37:09.795Z,1019.76
2019-05-15T13:02:01.672Z,1019.53
2019-05-15T13:07:12.126Z,1019.52
2019-05-15T13:11:58.454Z,1019.40
2019-05-15T13:16:55.455Z,1019.40
2019-05-15T13:21:51.542Z,1019.39
2019-05-15T13:26:47.643Z,1019.38
2019-05-15T13:31:41.747Z,1019.39
2019-05-15T13:36:39.242Z,1019.35
2019-05-15T13:41:34.583Z,1019.16
2019-05-15T13:46:32.985Z,1019.12
2019-05-15T13:51:29.043Z,1019.06
2019-05-15T13:56:28.814Z,1019.10
2019-05-15T14:01:23.806Z,1019.04
2019-05-15T14:06:20.346Z,1018.96
2019-05-15T14:11:21.164Z,1018.90
2019-05-15T14:16:15.866Z,1018.73
2019-05-15T14:21:11.672Z,1018.69
2019-05-15T14:26:18.343Z,1018.75
2019-05-15T14:31:09.512Z,1018.73
2019-05-15T14:36:04.621Z,1018.61
2019-05-15T14:41:00.638Z,1018.53
2019-05-15T14:45:58.546Z,1018.49
2019-05-15T14:50:54.623Z,1018.57
2019-05-15T14:55:50.058Z,1018.56
2019-05-15T15:00:49.657Z,1018.45
2019-05-15T15:05:44.579Z,1018.52
2019-05-15T15:10:41.784Z,1018.26
2019-05-15T15:15:38.514Z,1018.36
2019-05-15T15:20:34.074Z,1018.19
2019-05-15T15:25:29.949Z,1018.20
2019-05-15T15:30:25.520Z,1018.08
2019-05-15T15:35:21.557Z,1018.12
2019-05-15T15:40:18.910Z,1018.17
2019-05-15T15:45:14.397Z,1018.05
2019-05-15T15:50:11.366Z,1017.97
2019-05-15T15:55:08.907Z,1017.95
2019-05-15T16:00:04.917Z,1017.87
2019-05-15T16:05:00.923Z,1017.78
2019-05-15T16:09:58.882Z,1017.66
2019-05-15T16:14:57.810Z,1017.57
2019-05-15T16:19:52.663Z,1017.66
2019-05-15T16:24:49.147Z,1017.63
2019-05-15T16:29:44.529Z,1017.67
2019-05-15T16:34:40.264Z,1017.68
2019-05-15T16:39:38.034Z,1017.63
2019-05-15T16:44:33.791Z,1017.58
2019-05-15T16:49:29.769Z,1017.45
2019-05-15T16:54:28.837Z,1017.48
2019-05-15T16:59:24.225Z,1017.44
2019-05-15T17:04:21.630Z,1017.51
2019-05-15T17:09:21.619Z,1017.58
2019-05-15T17:14:19.796Z,1017.59
2019-05-15T17:19:15.469Z,1017.53
2019-05-15T17:24:10.818Z,1017.55
2019-05-15T17:29:08.942Z,1017.52
2019-05-15T17:34:05.387Z,1017.36
2019-05-15T17:39:00.879Z,1017.37
2019-05-15T17:43:57.987Z,1017.33
2019-05-15T17:48:56.351Z,1017.33
2019-05-15T17:53:52.126Z,1017.30
2019-05-15T17:58:49.089Z,1017.29
2019-05-15T18:03:48.452Z,1017.33
2019-05-15T18:08:43.799Z,1017.39
2019-05-15T18:13:39.660Z,1017.31
2019-05-15T18:18:35.399Z,1017.31
2019-05-15T18:23:32.614Z,1017.31
2019-05-15T18:28:28.436Z,1017.28
2019-05-15T18:33:24.284Z,1017.33
2019-05-15T18:38:20.237Z,1017.33
2019-05-15T18:43:17.994Z,1017.26
2019-05-15T18:48:13.125Z,1017.30
2019-05-15T18:53:10.053Z,1017.22
2019-05-15T18:58:08.809Z,1017.24
2019-05-15T19:03:18.357Z,1017.29
2019-05-15T19:08:03.429Z,1017.27
2019-05-15T19:12:59.143Z,1017.24
2019-05-15T19:17:55.718Z,1017.36
2019-05-15T19:22:51.248Z,1017.35
2019-05-15T19:27:46.990Z,1017.34
2019-05-15T19:32:43.070Z,1017.35
2019-05-15T19:37:39.921Z,1017.40
2019-05-15T19:42:38.082Z,1017.52
2019-05-15T19:47:34.263Z,1017.45
2019-05-15T19:52:29.735Z,1017.40
2019-05-15T19:57:28.023Z,1017.43
2019-05-15T20:02:22.908Z,1017.43
2019-05-15T20:07:20.028Z,1017.36
2019-05-15T20:12:15.546Z,1017.36
2019-05-15T20:17:11.274Z,1017.39
2019-05-15T20:22:08.584Z,1017.37
2019-05-15T20:27:04.644Z,1017.33
2019-05-15T20:32:01.446Z,1017.33
2019-05-15T20:36:58.752Z,1017.40
2019-05-15T20:41:54.372Z,1017.40
2019-05-15T20:46:50.999Z,1017.33
2019-05-15T20:51:48.900Z,1017.31
2019-05-15T20:56:44.065Z,1017.29
2019-05-15T21:01:40.783Z,1017.28
2019-05-15T21:06:37.726Z,1017.34
2019-05-15T21:11:34.403Z,1017.16
2019-05-15T21:16:29.909Z,1017.16
2019-05-15T21:21:28.263Z,1017.23
2019-05-15T21:26:23.198Z,1017.21
2019-05-15T21:31:21.811Z,1017.14
2019-05-15T21:36:19.446Z,1017.12
2019-05-15T21:41:18.627Z,1017.09
2019-05-15T21:46:13.539Z,1017.10
2019-05-15T21:51:11.748Z,1017.03
2019-05-15T21:56:08.173Z,1017.04
2019-05-15T22:01:03.734Z,1017.09
2019-05-15T22:05:59.538Z,1017.05
2019-05-15T22:10:55.371Z,1017.13
2019-05-15T22:15:51.342Z,1017.06
2019-05-15T22:20:48.061Z,1017.01
2019-05-15T22:25:43.569Z,1016.89
2019-05-15T22:30:39.400Z,1016.94
2019-05-15T22:35:37.705Z,1016.90
2019-05-15T22:40:34.202Z,1016.82
2019-05-15T22:45:30.187Z,1016.77
2019-05-15T22:50:28.133Z,1016.70
2019-05-15T22:55:24.584Z,1016.60
2019-05-15T23:00:20.123Z,1016.73
2019-05-15T23:05:26.946Z,1016.74
2019-05-15T23:10:15.116Z,1016.58
2019-05-15T23:15:11.853Z,1016.63
2019-05-15T23:20:08.647Z,1016.50
2019-05-15T23:25:03.549Z,1016.56
2019-05-15T23:29:59.281Z,1016.48
2019-05-15T23:34:55.177Z,1016.52
2019-05-15T23:39:51.327Z,1016.45
2019-05-15T23:44:48.667Z,1016.35
2019-05-15T23:49:43.830Z,1016.30
2019-05-15T23:54:41.784Z,1016.25
2019-05-15T23:59:38.423Z,1016.22
